Terminal Aerodrome Forecast
Issued by NWS Cleveland, OH

Home | Current Version | Previous Version | Text Only | Print | Product List | Glossary Off
Versions: 1 2 3 4 5 6 7 8 9 10 11 12 13 14 15 16 17 18

000
FTUS41 KCLE 231357 AAA
TAFTOL
TAF AMD
KTOL 231357Z 2314/2412 30005KT P6SM SCT100
     FM231700 02007KT P6SM SCT050 OVC100
     FM232200 04010G20KT P6SM SCT025 OVC050
     FM240100 04008KT P6SM BKN015
     FM241000 04006KT P6SM SCT015=

USA.gov is the U.S. government's official web portal to all federal, state and local government web resources and services.